Time;durP1;ratioP1;P1;durP2;ratioP2;P2;SDS_P1;SDS_P2;PMS_P1;PMS_P2;Temp;Humidity;BMP_temperature;BMP_pressure;BME280_temperature;BME280_humidity;BME280_pressure;Samples;Min_cycle;Max_cycle;Signal;HPM_P1;HPM_P2
2022/12/12 00:00:25;;;;;;;28.13;10.18;;;0.00;99.90;;;;;;5128854;28;20135;-76
2022/12/12 00:02:58;;;;;;;25.55;10.60;;;-0.10;99.90;;;;;;5095671;28;20519;-76
2022/12/12 00:05:26;;;;;;;24.45;9.93;;;1.00;99.90;;;;;;5061578;28;20032;-76
2022/12/12 00:07:54;;;;;;;32.13;9.88;;;-0.10;99.90;;;;;;5095465;28;20040;-76
2022/12/12 00:10:20;;;;;;;34.78;10.50;;;-0.10;99.90;;;;;;5111599;28;20040;-76
2022/12/12 00:12:47;;;;;;;30.83;10.73;;;0.00;99.90;;;;;;5078245;28;20162;-76
2022/12/12 00:15:14;;;;;;;23.17;9.73;;;0.30;99.90;;;;;;5095447;28;20391;-76
2022/12/12 00:17:41;;;;;;;30.92;11.00;;;-0.10;99.90;;;;;;5111727;28;20048;-76
2022/12/12 00:20:08;;;;;;;25.63;10.88;;;-0.10;99.90;;;;;;5111369;28;20053;-76
2022/12/12 00:22:36;;;;;;;26.80;10.10;;;0.00;99.90;;;;;;5093389;28;20040;-76
2022/12/12 00:25:03;;;;;;;24.58;9.93;;;0.90;99.90;;;;;;5128955;28;20047;-76
2022/12/12 00:27:31;;;;;;;22.17;9.38;;;-0.10;99.90;;;;;;5094384;28;20038;-76
2022/12/12 00:29:58;;;;;;;27.98;10.65;;;0.30;99.90;;;;;;5078129;28;20492;-76
2022/12/12 00:32:25;;;;;;;23.60;9.60;;;0.60;99.90;;;;;;5093959;28;20051;-77
2022/12/12 00:34:52;;;;;;;24.60;10.45;;;-0.10;99.90;;;;;;5078076;28;20158;-76
2022/12/12 00:37:24;;;;;;;28.20;10.52;;;1.10;99.90;;;;;;5079682;28;20050;-76
2022/12/12 00:39:51;;;;;;;31.38;11.35;;;-0.10;99.90;;;;;;5095041;28;20565;-76
2022/12/12 00:42:18;;;;;;;27.00;10.82;;;0.90;99.90;;;;;;5111210;28;20044;-76
2022/12/12 00:44:45;;;;;;;23.30;10.07;;;0.70;99.90;;;;;;5110508;28;20040;-76
2022/12/12 00:47:11;;;;;;;29.90;9.43;;;1.00;99.90;;;;;;5111023;28;20036;-76
2022/12/12 00:49:38;;;;;;;25.25;10.02;;;0.80;99.90;;;;;;5077571;28;20036;-76
2022/12/12 00:52:05;;;;;;;24.98;10.30;;;0.90;99.90;;;;;;5110876;28;20492;-76
2022/12/12 00:54:31;;;;;;;24.95;10.25;;;-0.10;99.90;;;;;;5110506;28;20599;-76
2022/12/12 00:56:58;;;;;;;23.20;9.30;;;0.10;99.90;;;;;;5110904;28;20036;-76
2022/12/12 00:59:25;;;;;;;28.85;10.88;;;-0.20;99.90;;;;;;5093606;28;20044;-76
2022/12/12 01:01:52;;;;;;;26.17;9.32;;;-0.50;99.90;;;;;;5077492;28;20055;-76
2022/12/12 01:04:19;;;;;;;34.10;10.15;;;-0.10;99.90;;;;;;5110924;28;20146;-76
2022/12/12 01:06:47;;;;;;;26.33;10.40;;;-0.10;99.90;;;;;;5093729;28;20122;-76
2022/12/12 01:09:14;;;;;;;30.95;9.98;;;-0.10;99.90;;;;;;5110639;28;20036;-76
2022/12/12 01:11:41;;;;;;;22.65;9.27;;;-0.10;99.90;;;;;;5094114;28;20173;-76
2022/12/12 01:14:07;;;;;;;27.42;10.98;;;-0.10;99.90;;;;;;5077271;28;20089;-76
2022/12/12 01:16:34;;;;;;;26.13;11.15;;;0.20;99.90;;;;;;5076882;28;20043;-76
2022/12/12 01:19:01;;;;;;;23.85;9.57;;;-0.10;99.90;;;;;;5110692;28;20059;-76
2022/12/12 01:21:28;;;;;;;28.05;10.25;;;0.30;99.90;;;;;;5110022;28;20048;-76
2022/12/12 01:23:54;;;;;;;24.45;10.20;;;1.10;99.90;;;;;;5110415;28;20048;-76
2022/12/12 01:26:23;;;;;;;22.92;9.27;;;0.60;99.90;;;;;;5076583;28;20032;-76
2022/12/12 01:28:50;;;;;;;26.42;11.00;;;-0.10;99.90;;;;;;5107316;28;20044;-76
2022/12/12 01:31:17;;;;;;;23.80;10.27;;;1.20;99.90;;;;;;5093704;28;20059;-76
2022/12/12 01:33:44;;;;;;;25.83;9.63;;;1.10;99.90;;;;;;5059859;28;20476;-76
2022/12/12 01:36:16;;;;;;;27.42;10.52;;;0.90;99.90;;;;;;5093314;28;20047;-76
2022/12/12 01:38:50;;;;;;;27.17;10.30;;;1.10;99.90;;;;;;5093105;28;20468;-76
2022/12/12 01:41:18;;;;;;;25.85;9.68;;;-0.10;99.90;;;;;;5109959;28;20457;-76
2022/12/12 01:43:45;;;;;;;28.38;10.35;;;-0.10;99.90;;;;;;5093017;28;20032;-76
2022/12/12 01:46:40;;;;;;;22.92;9.70;;;0.40;99.90;;;;;;5110895;28;20058;-76
2022/12/12 01:49:19;;;;;;;24.48;9.60;;;-0.10;99.90;;;;;;5109831;28;20032;-76
2022/12/12 01:51:48;;;;;;;32.33;10.57;;;0.90;99.90;;;;;;5109844;28;20074;-76
2022/12/12 01:54:24;;;;;;;26.27;10.23;;;-0.10;99.90;;;;;;5109640;28;20411;-76
2022/12/12 01:56:52;;;;;;;22.73;9.43;;;-0.10;99.90;;;;;;5127223;28;20123;-76
2022/12/12 01:59:21;;;;;;;24.60;9.32;;;0.80;99.90;;;;;;5093158;28;20114;-76
2022/12/12 02:01:49;;;;;;;23.55;9.68;;;-0.10;99.90;;;;;;5092687;28;20096;-76
2022/12/12 02:04:17;;;;;;;27.17;9.80;;;-0.10;99.90;;;;;;5109498;28;20051;-76
2022/12/12 02:06:46;;;;;;;32.00;10.20;;;0.90;99.90;;;;;;5092810;28;20027;-76
2022/12/12 02:09:15;;;;;;;25.15;9.65;;;0.30;99.90;;;;;;5093081;28;20040;-76
2022/12/12 02:11:48;;;;;;;25.30;10.20;;;0.10;99.90;;;;;;5092701;28;20040;-76
2022/12/12 02:14:41;;;;;;;24.92;9.38;;;-0.10;99.90;;;;;;5093063;28;20059;-76
2022/12/12 02:17:59;;;;;;;28.58;11.40;;;-0.10;99.90;;;;;;5077917;28;20594;-76
2022/12/12 02:20:27;;;;;;;25.60;9.82;;;-0.10;99.90;;;;;;5067902;28;20515;-76
2022/12/12 02:23:13;;;;;;;26.58;9.60;;;-0.20;99.90;;;;;;5109129;28;20043;-76
2022/12/12 02:26:16;;;;;;;28.05;10.55;;;0.00;99.90;;;;;;5092305;28;20118;-76
2022/12/12 02:29:09;;;;;;;25.23;10.60;;;-0.20;99.90;;;;;;5092172;28;20392;-76
2022/12/12 02:31:49;;;;;;;25.73;11.30;;;0.80;99.90;;;;;;5089939;28;20055;-77
2022/12/12 02:34:47;;;;;;;27.55;11.02;;;-0.20;99.90;;;;;;5093025;28;20043;-76
2022/12/12 02:37:48;;;;;;;26.92;10.02;;;-0.20;99.90;;;;;;5092319;28;20035;-76
2022/12/12 02:40:32;;;;;;;28.52;10.65;;;-0.20;99.90;;;;;;5109410;28;20040;-76
2022/12/12 02:43:11;;;;;;;25.42;10.25;;;-0.20;99.90;;;;;;5108832;28;20408;-76
2022/12/12 02:45:53;;;;;;;25.23;10.55;;;-0.20;99.90;;;;;;5092221;28;20181;-76
2022/12/12 02:48:39;;;;;;;22.33;9.85;;;-0.20;99.90;;;;;;5092257;28;20066;-76
2022/12/12 02:51:09;;;;;;;27.17;10.15;;;-0.20;99.90;;;;;;5092643;28;20511;-76
2022/12/12 02:53:36;;;;;;;31.00;10.45;;;0.70;99.90;;;;;;5109147;28;20036;-76
2022/12/12 02:56:44;;;;;;;21.45;9.32;;;-0.20;99.90;;;;;;5092128;28;20040;-76
2022/12/12 02:59:16;;;;;;;28.00;9.35;;;-0.10;99.90;;;;;;5109392;28;20040;-76
2022/12/12 03:01:51;;;;;;;27.27;10.18;;;0.80;99.90;;;;;;5108603;28;20137;-77
2022/12/12 03:08:25;;;;;;;27.08;10.23;;;0.00;99.90;;;;;;5079825;28;20122;-76
2022/12/12 03:10:57;;;;;;;24.95;9.73;;;-0.20;99.90;;;;;;5060311;28;20037;-76
2022/12/12 03:13:40;;;;;;;22.30;9.75;;;0.70;99.90;;;;;;5130850;28;20040;-76
2022/12/12 03:16:35;;;;;;;24.80;10.02;;;-0.20;99.90;;;;;;5109264;28;20046;-76
2022/12/12 03:19:05;;;;;;;27.42;9.48;;;-0.20;99.90;;;;;;5078776;28;20523;-76
2022/12/12 03:21:47;;;;;;;26.17;9.95;;;-0.20;99.90;;;;;;5096282;28;20056;-76
2022/12/12 03:24:22;;;;;;;25.17;10.30;;;-0.20;99.90;;;;;;5095788;28;20062;-76
2022/12/12 03:26:59;;;;;;;29.27;10.75;;;1.00;99.90;;;;;;5095850;28;20048;-77
2022/12/12 03:30:00;;;;;;;31.23;12.27;;;-0.20;99.90;;;;;;5095897;28;20488;-76
2022/12/12 03:32:41;;;;;;;30.25;11.55;;;-0.20;99.90;;;;;;5095709;28;20071;-76
2022/12/12 03:35:18;;;;;;;22.48;10.02;;;-0.20;99.90;;;;;;5112536;28;20173;-76
2022/12/12 03:37:56;;;;;;;28.90;9.88;;;-0.20;99.90;;;;;;5111993;28;20044;-77
2022/12/12 03:40:44;;;;;;;29.13;10.85;;;0.70;99.90;;;;;;5129536;28;20071;-76
2022/12/12 03:43:16;;;;;;;25.90;10.55;;;-0.20;99.90;;;;;;5112638;28;20123;-76
2022/12/12 03:46:21;;;;;;;23.08;9.48;;;-0.20;99.90;;;;;;5095439;28;20044;-76
2022/12/12 03:49:12;;;;;;;25.00;9.43;;;-0.20;99.90;;;;;;5095637;28;20533;-76
2022/12/12 03:51:46;;;;;;;28.75;11.60;;;0.70;99.90;;;;;;5112307;28;20127;-76
2022/12/12 03:54:47;;;;;;;22.58;10.07;;;-0.20;99.90;;;;;;5095537;28;20486;-76
2022/12/12 03:57:47;;;;;;;21.80;10.10;;;0.40;99.90;;;;;;5111384;28;20062;-76
2022/12/12 04:00:15;;;;;;;21.80;9.45;;;-0.20;99.90;;;;;;5094061;28;20420;-76
2022/12/12 04:02:50;;;;;;;25.23;9.93;;;-0.20;99.90;;;;;;5111477;28;20472;-76
2022/12/12 04:05:37;;;;;;;28.03;9.20;;;-0.30;99.90;;;;;;5129798;28;20131;-77
2022/12/12 04:08:14;;;;;;;24.08;9.23;;;-0.30;99.90;;;;;;5094877;28;20450;-77
2022/12/12 04:14:07;;;;;;;23.73;9.57;;;0.90;99.90;;;;;;5111882;28;20048;-76
2022/12/12 04:16:39;;;;;;;25.65;9.30;;;-0.20;99.90;;;;;;5111798;28;20048;-76
2022/12/12 04:26:38;;;;;;;25.73;10.38;;;-0.30;99.90;;;;;;5111419;28;20040;-76
2022/12/12 04:28:31;;;;;;;24.58;10.23;;;-0.30;99.90;;;;;;5110991;28;20514;-76
2022/12/12 04:31:03;;;;;;;25.23;9.60;;;-0.30;99.90;;;;;;5111305;28;20036;-76
2022/12/12 04:33:46;;;;;;;22.35;9.77;;;0.40;99.90;;;;;;5111060;28;20519;-76
2022/12/12 04:36:15;;;;;;;27.00;11.25;;;-0.30;99.90;;;;;;5111046;28;20044;-76
2022/12/12 04:38:44;;;;;;;29.42;10.15;;;-0.30;99.90;;;;;;5111268;28;20122;-76
2022/12/12 04:41:13;;;;;;;26.98;11.07;;;-0.30;99.90;;;;;;5094079;28;20044;-76
2022/12/12 04:43:43;;;;;;;26.38;11.30;;;-0.20;99.90;;;;;;5111268;28;20044;-76
2022/12/12 04:46:14;;;;;;;27.73;10.48;;;-0.30;99.90;;;;;;5094113;28;20043;-76
2022/12/12 04:48:44;;;;;;;20.98;9.50;;;-0.30;99.90;;;;;;5110771;28;20389;-76
2022/12/12 04:51:15;;;;;;;25.45;9.82;;;-0.30;99.90;;;;;;5094387;28;20114;-76
2022/12/12 04:53:51;;;;;;;26.23;10.85;;;-0.30;99.90;;;;;;5094028;28;20051;-76
2022/12/12 04:56:22;;;;;;;25.00;10.40;;;-0.30;99.90;;;;;;5110364;28;20404;-76
2022/12/12 04:58:49;;;;;;;25.75;10.48;;;0.70;99.90;;;;;;5093938;28;20048;-76
2022/12/12 05:01:27;;;;;;;25.95;10.27;;;-0.40;99.90;;;;;;5093614;28;20385;-76
2022/12/12 05:03:57;;;;;;;29.42;11.60;;;-0.30;99.90;;;;;;5111070;28;20040;-76
2022/12/12 05:06:40;;;;;;;24.13;10.30;;;0.40;99.90;;;;;;5077055;28;20512;-76
2022/12/12 05:09:07;;;;;;;28.40;11.32;;;0.70;99.90;;;;;;5093863;28;20036;-76
2022/12/12 05:11:34;;;;;;;30.52;11.25;;;0.40;99.90;;;;;;5110037;28;20078;-76
2022/12/12 05:14:01;;;;;;;26.65;11.07;;;0.80;99.90;;;;;;5093636;28;20079;-76
2022/12/12 05:16:43;;;;;;;23.90;10.57;;;0.20;99.90;;;;;;5110177;28;20040;-76
2022/12/12 05:19:10;;;;;;;26.58;10.20;;;-0.40;99.90;;;;;;5076542;28;20063;-76
2022/12/12 05:21:36;;;;;;;23.88;10.18;;;-0.40;99.90;;;;;;5093345;28;20052;-76
2022/12/12 05:24:05;;;;;;;26.60;9.80;;;0.10;99.90;;;;;;5060381;28;20048;-76
2022/12/12 05:26:33;;;;;;;25.85;10.05;;;-0.40;99.90;;;;;;5093548;28;20503;-76
2022/12/12 05:29:00;;;;;;;23.50;9.63;;;0.20;99.90;;;;;;5093766;28;20232;-76
2022/12/12 05:31:30;;;;;;;23.25;10.20;;;-0.50;99.90;;;;;;5127963;28;20051;-76
2022/12/12 05:33:58;;;;;;;22.65;9.88;;;0.40;99.90;;;;;;5076631;28;20039;-76
2022/12/12 05:36:25;;;;;;;27.42;11.05;;;-0.50;99.90;;;;;;5093058;28;20082;-76
2022/12/12 05:38:52;;;;;;;30.80;10.50;;;-0.50;99.90;;;;;;5109878;28;20061;-76
2022/12/12 05:41:18;;;;;;;28.23;10.70;;;-0.50;99.90;;;;;;5060056;28;20204;-76
2022/12/12 05:43:46;;;;;;;31.02;11.73;;;-0.50;99.90;;;;;;5059844;28;20038;-76
2022/12/12 05:46:19;;;;;;;33.83;11.35;;;-0.60;99.90;;;;;;5094127;28;20477;-76
2022/12/12 05:48:49;;;;;;;29.33;10.80;;;0.60;99.90;;;;;;5059691;28;20094;-76
2022/12/12 05:51:20;;;;;;;31.20;12.88;;;-0.40;99.90;;;;;;5109552;28;20040;-76
2022/12/12 05:53:46;;;;;;;28.30;11.38;;;-0.60;99.90;;;;;;5093734;28;20101;-76
2022/12/12 05:56:13;;;;;;;25.42;10.85;;;-0.60;99.90;;;;;;5076150;28;20051;-76
2022/12/12 05:58:40;;;;;;;30.10;11.18;;;-0.60;99.90;;;;;;5109880;28;20507;-76
2022/12/12 06:01:09;;;;;;;27.92;11.10;;;0.60;99.90;;;;;;5075815;28;20043;-76
2022/12/12 06:03:36;;;;;;;30.30;12.10;;;0.20;99.90;;;;;;5092053;28;20170;-76
2022/12/12 06:06:03;;;;;;;29.05;10.40;;;-0.70;99.90;;;;;;5076118;28;20044;-76
2022/12/12 06:08:30;;;;;;;27.15;11.48;;;-0.80;99.90;;;;;;5076516;28;20047;-76
2022/12/12 06:10:57;;;;;;;26.00;10.38;;;-0.80;99.90;;;;;;5109118;28;20072;-76
2022/12/12 06:13:25;;;;;;;29.85;11.80;;;-0.90;99.90;;;;;;5072389;28;20045;-76
2022/12/12 06:15:51;;;;;;;29.58;11.63;;;-1.00;99.90;;;;;;5072604;28;20032;-76
2022/12/12 06:18:18;;;;;;;28.63;10.75;;;0.20;99.90;;;;;;5088767;28;20048;-76
2022/12/12 06:20:47;;;;;;;31.52;12.65;;;-0.90;99.90;;;;;;5089189;28;20052;-76
2022/12/12 06:23:13;;;;;;;29.38;11.82;;;-0.50;99.90;;;;;;5078621;28;20044;-76
2022/12/12 06:25:40;;;;;;;27.20;12.30;;;0.10;99.90;;;;;;5076202;28;20035;-75
2022/12/12 06:28:07;;;;;;;29.98;12.13;;;-1.00;99.90;;;;;;5075314;28;20035;-76
2022/12/12 06:30:34;;;;;;;33.63;11.90;;;-1.00;99.90;;;;;;5076227;28;20047;-76
2022/12/12 06:33:00;;;;;;;30.88;11.65;;;-0.90;99.90;;;;;;5075343;28;20067;-76
2022/12/12 06:35:27;;;;;;;29.00;11.40;;;-1.10;99.90;;;;;;5058972;28;20593;-76
2022/12/12 06:37:54;;;;;;;32.40;12.43;;;-0.70;99.90;;;;;;5083966;28;20498;-76
2022/12/12 06:40:21;;;;;;;31.02;10.65;;;-0.20;99.90;;;;;;5100254;28;20036;-75
2022/12/12 06:42:47;;;;;;;27.92;11.77;;;-1.20;99.90;;;;;;5077033;28;20047;-75
2022/12/12 06:45:15;;;;;;;37.10;12.77;;;-0.40;99.90;;;;;;5096012;28;20860;-76
2022/12/12 06:47:41;;;;;;;33.65;11.95;;;-1.30;99.90;;;;;;5062879;28;20032;-76
2022/12/12 06:50:08;;;;;;;32.03;12.35;;;-1.10;99.90;;;;;;5079340;28;20040;-76
2022/12/12 06:52:36;;;;;;;28.92;11.90;;;-1.40;99.90;;;;;;5062710;28;20131;-76
2022/12/12 06:55:03;;;;;;;28.77;11.48;;;-1.40;99.90;;;;;;5062372;28;20058;-76
2022/12/12 06:57:30;;;;;;;31.42;12.38;;;-1.50;99.90;;;;;;5112386;28;20408;-76
2022/12/12 06:59:57;;;;;;;30.20;11.57;;;-1.50;99.90;;;;;;5079178;28;20032;-75
2022/12/12 07:02:23;;;;;;;31.08;11.75;;;-0.30;99.90;;;;;;5078474;28;20040;-76
2022/12/12 07:04:50;;;;;;;27.35;11.45;;;-1.60;99.90;;;;;;5087831;28;20036;-76
2022/12/12 07:07:17;;;;;;;28.05;10.65;;;-1.60;99.90;;;;;;5079235;28;20071;-77
2022/12/12 07:09:45;;;;;;;31.25;11.15;;;-1.60;99.90;;;;;;5078982;28;20479;-76
2022/12/12 07:12:12;;;;;;;28.35;11.63;;;-1.70;99.90;;;;;;5096195;28;20047;-76
2022/12/12 07:14:38;;;;;;;32.35;11.38;;;-1.60;99.90;;;;;;5095181;28;20039;-76
2022/12/12 07:17:05;;;;;;;28.08;10.70;;;-1.20;99.90;;;;;;5079215;28;20047;-76
2022/12/12 07:19:32;;;;;;;36.58;12.10;;;-1.70;99.90;;;;;;5095109;28;20063;-76
2022/12/12 07:21:59;;;;;;;35.78;12.82;;;-0.80;99.90;;;;;;5078469;28;20082;-76
2022/12/12 07:24:26;;;;;;;32.72;12.48;;;-1.70;99.90;;;;;;5077508;28;20036;-77
2022/12/12 07:26:52;;;;;;;35.22;13.65;;;-1.70;99.90;;;;;;5060641;28;20032;-77
2022/12/12 07:29:19;;;;;;;37.72;15.30;;;-1.70;99.90;;;;;;5087907;28;20041;-77
2022/12/12 07:31:46;;;;;;;41.78;15.18;;;-1.70;99.90;;;;;;5076148;28;20047;-77
2022/12/12 07:34:12;;;;;;;37.92;15.82;;;-1.70;99.90;;;;;;5056634;28;20039;-77
2022/12/12 07:36:39;;;;;;;37.35;15.65;;;-1.70;99.90;;;;;;5075139;28;20036;-74
2022/12/12 07:39:06;;;;;;;35.45;15.07;;;-1.80;99.90;;;;;;5088849;28;20165;-74
2022/12/12 07:41:33;;;;;;;35.72;15.05;;;-1.30;99.90;;;;;;5087970;28;20063;-74
2022/12/12 07:44:00;;;;;;;38.17;15.00;;;-0.90;99.90;;;;;;5107003;28;20075;-74
2022/12/12 07:46:26;;;;;;;44.30;16.20;;;-1.80;99.90;;;;;;5097022;28;20090;-75
2022/12/12 07:48:53;;;;;;;37.03;14.95;;;-1.80;99.90;;;;;;5094819;28;20036;-74
2022/12/12 07:51:21;;;;;;;40.10;15.52;;;-1.80;99.90;;;;;;5096016;28;20044;-75
2022/12/12 07:53:49;;;;;;;42.35;17.00;;;-1.70;99.90;;;;;;5066386;28;20036;-74
2022/12/12 07:56:17;;;;;;;41.25;16.60;;;-1.70;99.90;;;;;;5099006;28;20127;-74
2022/12/12 07:58:44;;;;;;;38.78;16.10;;;-1.70;99.90;;;;;;5078991;28;20044;-74
2022/12/12 08:01:15;;;;;;;41.75;16.45;;;-1.70;99.90;;;;;;5094865;28;20051;-75
2022/12/12 08:03:46;;;;;;;42.33;16.20;;;-1.70;99.90;;;;;;5110882;28;20042;-74
2022/12/12 08:06:15;;;;;;;42.67;16.20;;;-1.70;99.90;;;;;;5094287;28;20036;-74
2022/12/12 08:08:42;;;;;;;42.80;16.40;;;-1.70;99.90;;;;;;5093916;28;20138;-74
2022/12/12 08:11:11;;;;;;;40.20;15.60;;;-1.70;99.90;;;;;;5094440;28;20128;-74
2022/12/12 08:13:39;;;;;;;38.28;15.82;;;-1.70;99.90;;;;;;5077916;28;20028;-74
2022/12/12 08:16:11;;;;;;;41.60;16.85;;;-1.70;99.90;;;;;;5077827;28;20036;-73
2022/12/12 08:18:38;;;;;;;40.83;16.02;;;-1.70;99.90;;;;;;5093772;28;20500;-74
2022/12/12 08:21:09;;;;;;;49.25;17.33;;;-1.70;99.90;;;;;;5061112;28;20047;-73
2022/12/12 08:23:37;;;;;;;41.72;17.17;;;-1.50;99.90;;;;;;5061241;28;20496;-74
2022/12/12 08:26:11;;;;;;;46.50;18.00;;;-1.60;99.90;;;;;;5094721;28;20128;-74
2022/12/12 08:28:40;;;;;;;48.15;17.48;;;-1.60;99.90;;;;;;5107352;28;20101;-76
2022/12/12 08:31:07;;;;;;;47.25;17.60;;;-1.50;99.90;;;;;;5093630;28;20044;-76
2022/12/12 08:33:34;;;;;;;45.22;17.17;;;-1.50;99.90;;;;;;5078139;28;20658;-76
2022/12/12 08:36:15;;;;;;;46.53;18.05;;;-2.00;99.90;;;;;;5064672;28;20046;-76
2022/12/12 08:38:42;;;;;;;46.65;17.05;;;-1.40;99.90;;;;;;5078234;28;20109;-76
2022/12/12 08:41:10;;;;;;;44.38;17.00;;;-1.00;99.90;;;;;;5078135;28;20445;-76
2022/12/12 08:43:39;;;;;;;43.83;17.38;;;-1.40;99.90;;;;;;5078160;28;20042;-76
2022/12/12 08:46:07;;;;;;;49.65;18.08;;;-0.30;99.90;;;;;;5094827;28;20491;-76
2022/12/12 08:48:34;;;;;;;45.35;16.83;;;-1.30;99.90;;;;;;5078461;28;20071;-77
2022/12/12 08:51:00;;;;;;;44.58;17.50;;;-1.40;99.90;;;;;;5111552;28;20094;-76
2022/12/12 08:53:27;;;;;;;45.00;16.75;;;-0.50;99.90;;;;;;5078066;28;20040;-77
2022/12/12 08:55:55;;;;;;;47.65;17.70;;;-0.20;99.90;;;;;;5094764;28;20036;-76
2022/12/12 08:58:22;;;;;;;47.28;18.08;;;-0.10;99.90;;;;;;5094325;28;20035;-76
2022/12/12 09:00:49;;;;;;;45.00;17.40;;;-0.50;99.90;;;;;;5061617;28;20388;-76
2022/12/12 09:03:16;;;;;;;42.78;17.25;;;-0.50;99.90;;;;;;5077919;28;20102;-76
2022/12/12 09:05:44;;;;;;;48.05;17.50;;;-1.40;99.90;;;;;;5077382;28;20032;-76
2022/12/12 09:08:12;;;;;;;46.17;18.05;;;-0.50;99.90;;;;;;5094385;28;20092;-76
2022/12/12 09:10:40;;;;;;;50.90;18.60;;;-1.50;99.90;;;;;;5094180;28;20429;-76
2022/12/12 09:13:07;;;;;;;46.72;17.67;;;-0.50;99.90;;;;;;5094429;28;20050;-76
2022/12/12 09:15:35;;;;;;;44.03;18.42;;;-1.50;99.90;;;;;;5094029;28;20054;-76
2022/12/12 09:18:02;;;;;;;42.90;17.42;;;-1.50;99.90;;;;;;5094480;28;20046;-77
2022/12/12 09:20:29;;;;;;;45.05;18.45;;;-0.90;99.90;;;;;;5077377;28;20059;-76
2022/12/12 09:22:56;;;;;;;49.65;18.67;;;-1.50;99.90;;;;;;5094047;28;20043;-76
2022/12/12 09:25:23;;;;;;;48.67;19.85;;;-1.60;99.90;;;;;;5061086;28;20040;-76
2022/12/12 09:27:50;;;;;;;49.97;19.85;;;-0.80;99.90;;;;;;5093620;28;20044;-77
2022/12/12 09:30:17;;;;;;;46.95;18.73;;;-1.50;99.90;;;;;;5077323;28;20362;-76
2022/12/12 09:32:44;;;;;;;47.00;19.20;;;-1.40;99.90;;;;;;5110782;28;20040;-76
2022/12/12 09:35:11;;;;;;;46.53;18.35;;;-0.50;99.90;;;;;;5077309;28;20040;-76
2022/12/12 09:37:38;;;;;;;44.83;18.27;;;-1.50;99.90;;;;;;5060733;28;20040;-76
2022/12/12 09:40:05;;;;;;;47.55;19.10;;;-0.20;99.90;;;;;;5077427;28;20032;-76
2022/12/12 09:42:34;;;;;;;47.30;20.10;;;-1.40;99.90;;;;;;5077118;28;20514;-76
2022/12/12 09:45:06;;;;;;;52.78;20.27;;;-0.80;99.90;;;;;;5093854;28;20047;-76
2022/12/12 09:47:43;;;;;;;51.05;20.35;;;-1.40;99.90;;;;;;5077225;28;20404;-76
2022/12/12 09:50:30;;;;;;;46.17;19.30;;;-0.60;99.90;;;;;;5093642;28;20071;-76
2022/12/12 09:53:04;;;;;;;49.20;20.30;;;-0.30;99.90;;;;;;5079739;28;20066;-76
2022/12/12 09:55:30;;;;;;;49.20;19.83;;;-0.60;99.90;;;;;;5093545;28;20043;-76
2022/12/12 09:58:18;;;;;;;55.28;19.80;;;-0.10;99.90;;;;;;5093344;28;20407;-76
2022/12/12 10:01:05;;;;;;;51.25;20.30;;;-1.30;99.90;;;;;;5110068;28;20050;-77
2022/12/12 10:03:50;;;;;;;;;;;-1.30;99.90;;;;;;5093849;28;20043;-76
2022/12/12 10:06:19;;;;;;;48.58;17.98;;;-1.30;99.90;;;;;;5093422;28;19916;-76
2022/12/12 10:09:02;;;;;;;47.88;18.80;;;-0.50;99.90;;;;;;5076729;28;20043;-76
2022/12/12 10:11:51;;;;;;;50.95;18.77;;;-1.30;99.90;;;;;;5110039;28;20098;-76
2022/12/12 10:14:21;;;;;;;43.55;18.05;;;-1.20;99.90;;;;;;5093259;28;20126;-76
2022/12/12 10:16:49;;;;;;;47.17;18.77;;;-0.10;99.90;;;;;;5093094;28;20044;-76
2022/12/12 10:19:26;;;;;;;49.72;19.25;;;-1.00;99.90;;;;;;5092966;28;20060;-76
2022/12/12 10:21:59;;;;;;;48.13;18.75;;;-1.20;99.90;;;;;;5092764;28;20040;-76
2022/12/12 10:24:35;;;;;;;48.22;19.13;;;-0.10;99.90;;;;;;5093263;28;20043;-76
2022/12/12 10:27:09;;;;;;;40.78;16.77;;;-0.40;99.90;;;;;;5093159;28;20043;-76
2022/12/12 10:29:37;;;;;;;49.55;18.58;;;-0.10;99.90;;;;;;5093230;28;20397;-76
2022/12/12 10:32:31;;;;;;;47.88;19.30;;;-1.10;99.90;;;;;;5076502;28;20036;-76
2022/12/12 10:35:08;;;;;;;48.60;18.80;;;-1.10;99.90;;;;;;5092980;28;20134;-77
2022/12/12 10:38:27;;;;;;;48.55;18.55;;;-1.10;99.90;;;;;;5093017;28;20123;-76
2022/12/12 10:41:06;;;;;;;42.92;18.48;;;-1.10;99.90;;;;;;5028758;28;20104;-76
2022/12/12 10:43:48;;;;;;;43.58;18.08;;;0.00;99.90;;;;;;5012645;28;20064;-76
2022/12/12 10:46:18;;;;;;;45.40;18.80;;;0.00;99.90;;;;;;5074252;28;20080;-76
2022/12/12 10:48:47;;;;;;;45.90;18.52;;;-0.20;99.90;;;;;;5092838;28;20113;-77
2022/12/12 10:51:18;;;;;;;41.67;18.00;;;-0.90;99.90;;;;;;5092928;28;20500;-76
2022/12/12 10:53:45;;;;;;;43.53;18.08;;;-0.90;99.90;;;;;;5092867;28;20487;-77
2022/12/12 10:56:19;;;;;;;40.05;16.88;;;0.40;99.90;;;;;;5076462;28;20395;-76
2022/12/12 10:58:58;;;;;;;41.47;17.27;;;-0.80;99.90;;;;;;5092663;28;20040;-77
2022/12/12 11:01:36;;;;;;;45.95;17.80;;;-0.80;99.90;;;;;;5092686;28;20044;-76
2022/12/12 11:04:03;;;;;;;46.45;18.27;;;0.50;99.90;;;;;;5092857;28;20036;-77
2022/12/12 11:06:37;;;;;;;41.90;16.73;;;0.30;99.90;;;;;;5076227;28;20032;-76
2022/12/12 11:09:27;;;;;;;39.22;17.05;;;-0.60;99.90;;;;;;5092640;28;20075;-77
2022/12/12 11:12:00;;;;;;;45.92;17.25;;;-0.50;99.90;;;;;;5092956;28;20130;-77
2022/12/12 11:14:35;;;;;;;43.10;18.33;;;-0.70;99.90;;;;;;5092848;28;20047;-77
2022/12/12 11:17:25;;;;;;;38.92;17.45;;;-0.40;99.90;;;;;;5092494;28;20392;-77
2022/12/12 11:19:53;;;;;;;43.95;17.85;;;-0.60;99.90;;;;;;5077019;28;20056;-77
2022/12/12 11:22:21;;;;;;;42.15;17.85;;;-0.20;99.90;;;;;;5109226;28;20048;-76
2022/12/12 11:24:49;;;;;;;42.17;18.00;;;-0.20;99.90;;;;;;5076117;28;20488;-77
2022/12/12 11:27:29;;;;;;;42.00;17.90;;;-0.20;99.90;;;;;;5093723;28;20032;-77
2022/12/12 11:30:02;;;;;;;40.63;17.33;;;-0.20;99.90;;;;;;5095957;28;20385;-77
2022/12/12 11:32:50;;;;;;;35.90;16.70;;;0.50;99.90;;;;;;5112149;28;20523;-78
2022/12/12 11:35:38;;;;;;;36.58;16.50;;;0.70;99.90;;;;;;5096658;28;20122;-78
2022/12/12 11:38:28;;;;;;;45.03;17.10;;;0.70;99.90;;;;;;5112960;28;20138;-78
2022/12/12 11:41:07;;;;;;;40.47;17.15;;;-0.10;99.90;;;;;;5112888;28;20048;-78
2022/12/12 11:43:36;;;;;;;46.10;18.05;;;0.00;99.90;;;;;;5096697;28;20130;-78
2022/12/12 11:46:22;;;;;;;38.40;17.13;;;1.30;99.90;;;;;;5096105;28;20044;-78
2022/12/12 11:48:51;;;;;;;44.17;19.10;;;0.10;99.90;;;;;;5112751;28;20040;-78
2022/12/12 11:51:43;;;;;;;41.92;18.50;;;0.10;99.90;;;;;;5108415;28;20095;-79
2022/12/12 11:54:25;;;;;;;38.92;16.90;;;0.10;99.90;;;;;;5092921;28;20044;-78
2022/12/12 11:56:56;;;;;;;34.38;14.98;;;0.50;99.90;;;;;;5085006;28;20119;-79
2022/12/12 11:59:30;;;;;;;37.47;16.58;;;0.10;99.90;;;;;;5112953;28;20070;-79
2022/12/12 12:02:16;;;;;;;38.47;17.27;;;-0.40;99.90;;;;;;5095998;28;20040;-78
2022/12/12 12:05:07;;;;;;;32.47;14.90;;;0.20;99.90;;;;;;5095890;28;20044;-78
2022/12/12 12:08:02;;;;;;;32.55;15.02;;;0.20;99.90;;;;;;5112861;28;20040;-78
2022/12/12 12:10:47;;;;;;;32.13;15.98;;;1.50;99.90;;;;;;5095853;28;20032;-78
2022/12/12 12:13:17;;;;;;;32.13;14.75;;;0.30;99.90;;;;;;5112346;28;20130;-78
2022/12/12 12:16:20;;;;;;;33.42;15.48;;;0.30;99.90;;;;;;5112349;28;20101;-79
2022/12/12 12:18:59;;;;;;;31.85;14.50;;;0.40;99.90;;;;;;5095723;28;20130;-78
2022/12/12 12:21:33;;;;;;;34.95;16.20;;;0.30;99.90;;;;;;5095066;28;20388;-78
2022/12/12 12:24:18;;;;;;;30.95;12.88;;;1.70;99.90;;;;;;5095757;28;20043;-78
2022/12/12 12:27:01;;;;;;;24.27;11.23;;;0.40;99.90;;;;;;5112173;28;20036;-78
2022/12/12 12:29:46;;;;;;;28.67;14.98;;;0.90;99.90;;;;;;5095490;28;20040;-78
2022/12/12 12:32:42;;;;;;;27.70;13.83;;;0.80;99.90;;;;;;5095445;28;20085;-78
2022/12/12 12:35:21;;;;;;;29.35;12.57;;;0.40;99.90;;;;;;5111670;28;20134;-78
2022/12/12 12:38:00;;;;;;;28.40;13.90;;;0.50;99.90;;;;;;5095113;28;20539;-78
2022/12/12 12:40:38;;;;;;;28.63;13.80;;;1.50;99.90;;;;;;5093948;28;20047;-78
2022/12/12 12:43:39;;;;;;;23.83;11.40;;;0.40;99.90;;;;;;5094947;28;20089;-78
2022/12/12 12:46:20;;;;;;;26.23;13.18;;;0.40;99.90;;;;;;5111461;28;20038;-78
2022/12/12 12:48:51;;;;;;;25.95;12.70;;;0.50;99.90;;;;;;5094731;28;20073;-78
2022/12/12 12:51:30;;;;;;;26.67;11.52;;;1.60;99.90;;;;;;5094853;28;20039;-78
2022/12/12 12:54:21;;;;;;;26.35;12.70;;;0.40;99.90;;;;;;5111629;28;20040;-78
2022/12/12 12:56:59;;;;;;;28.40;12.82;;;0.40;99.90;;;;;;5111476;28;20040;-78
2022/12/12 12:59:35;;;;;;;25.33;12.70;;;1.20;99.90;;;;;;5111275;28;20043;-78
2022/12/12 13:02:23;;;;;;;23.77;12.00;;;1.20;99.90;;;;;;5094729;28;20080;-78
2022/12/12 13:05:19;;;;;;;20.42;10.35;;;0.30;99.90;;;;;;5094679;28;20036;-78
2022/12/12 13:07:58;;;;;;;23.60;11.00;;;0.30;99.90;;;;;;5102919;28;20044;-78
2022/12/12 13:10:28;;;;;;;23.05;11.38;;;0.30;99.90;;;;;;5111142;28;20517;-78
2022/12/12 13:12:57;;;;;;;21.77;11.25;;;1.50;99.90;;;;;;5111336;28;20076;-78
2022/12/12 13:15:33;;;;;;;22.80;11.23;;;0.40;99.90;;;;;;5094346;28;20059;-78
2022/12/12 13:18:03;;;;;;;23.35;10.20;;;0.20;99.90;;;;;;5094463;28;20032;-78